Time;durP1;ratioP1;P1;durP2;ratioP2;P2;SDS_P1;SDS_P2;PMS_P1;PMS_P2;Temp;Humidity;BMP_temperature;BMP_pressure;BME280_temperature;BME280_humidity;BME280_pressure;Samples;Min_cycle;Max_cycle;Signal;HPM_P1;HPM_P2
2022/12/18 02:43:13;;;;;;;17.87;12.07;;;;;;;-1.79;76.62;99805.34;1841339;78;22659;-39
2022/12/18 02:45:56;;;;;;;18.37;11.65;;;;;;;-1.78;76.00;99818.91;1806099;79;20974;-38
2022/12/18 02:48:28;;;;;;;20.68;13.10;;;;;;;-1.87;75.62;99821.84;1797857;79;21832;-38
2022/12/18 02:51:12;;;;;;;19.82;12.33;;;;;;;-1.89;75.79;99825.31;1766633;79;20994;-38
2022/12/18 02:53:54;;;;;;;17.32;11.95;;;;;;;-1.93;75.78;99832.19;1797780;79;20943;-38
2022/12/18 02:56:32;;;;;;;18.45;12.18;;;;;;;-1.96;75.16;99836.72;1781079;79;20892;-38
2022/12/18 02:59:16;;;;;;;18.82;11.85;;;;;;;-2.00;74.84;99846.28;1787090;79;20951;-38
2022/12/18 03:02:04;;;;;;;15.32;10.30;;;;;;;-2.03;74.61;99860.11;1797587;79;21481;-38
2022/12/18 03:04:43;;;;;;;16.32;10.85;;;;;;;-2.04;74.16;99859.84;1797521;79;21002;-39
2022/12/18 03:07:18;;;;;;;16.55;10.25;;;;;;;-2.05;73.75;99867.00;1791887;79;20922;-38
2022/12/18 03:09:48;;;;;;;15.03;10.00;;;;;;;-2.14;72.39;99866.46;1798031;79;21512;-38
2022/12/18 03:12:23;;;;;;;15.63;9.88;;;;;;;-2.16;72.20;99877.86;1798192;79;21766;-38
2022/12/18 03:15:14;;;;;;;15.45;10.15;;;;;;;-2.18;72.20;99880.80;1798225;79;21438;-38
2022/12/18 03:17:46;;;;;;;14.50;9.83;;;;;;;-2.18;72.34;99885.31;1797652;79;21029;-38
2022/12/18 03:20:17;;;;;;;15.18;9.70;;;;;;;-2.16;72.04;99883.17;1798065;79;20967;-38
2022/12/18 03:22:44;;;;;;;15.80;10.05;;;;;;;-2.13;71.70;99893.30;1797867;79;20998;-39
2022/12/18 03:25:13;;;;;;;18.48;11.55;;;;;;;-2.15;71.29;99884.78;1797928;79;21536;-38
2022/12/18 03:27:45;;;;;;;16.82;10.82;;;;;;;-2.20;71.59;99898.84;1791578;79;21497;-39
2022/12/18 03:30:15;;;;;;;19.07;11.70;;;;;;;-2.22;71.81;99889.80;1797882;79;20920;-39
2022/12/18 03:33:02;;;;;;;17.57;11.12;;;;;;;-2.23;71.53;99896.17;1797718;79;21010;-38
2022/12/18 03:35:33;;;;;;;17.27;11.05;;;;;;;-2.29;71.72;99895.91;1791572;79;21011;-38
2022/12/18 03:38:00;;;;;;;16.62;10.82;;;;;;;-2.30;71.97;99901.48;1766568;79;21027;-38
2022/12/18 03:40:35;;;;;;;18.70;12.10;;;;;;;-2.32;72.32;99907.56;1797683;79;21231;-38
2022/12/18 03:43:07;;;;;;;16.87;10.88;;;;;;;-2.29;72.48;99902.55;1758733;79;20963;-38
2022/12/18 03:45:38;;;;;;;17.25;11.10;;;;;;;-2.29;72.34;99912.38;1798000;79;21002;-38
2022/12/18 03:48:19;;;;;;;17.17;11.18;;;;;;;-2.26;72.41;99919.80;1797960;79;21537;-39
2022/12/18 03:51:02;;;;;;;16.65;10.78;;;;;;;-2.24;72.62;99917.70;1770565;79;21002;-38
2022/12/18 03:53:44;;;;;;;18.35;11.68;;;;;;;-2.26;72.30;99921.94;1797715;79;21280;-38
2022/12/18 03:56:11;;;;;;;15.95;10.48;;;;;;;-2.24;71.68;99926.99;1797352;79;20955;-39
2022/12/18 03:58:39;;;;;;;18.87;11.43;;;;;;;-2.25;71.67;99940.80;1797377;79;20971;-38
2022/12/18 04:01:15;;;;;;;18.35;11.20;;;;;;;-2.30;71.76;99944.77;1796320;79;20984;-38
2022/12/18 04:03:42;;;;;;;17.80;10.78;;;;;;;-2.28;72.01;99947.97;1797297;79;21553;-39
2022/12/18 04:06:11;;;;;;;18.05;11.18;;;;;;;-2.29;71.47;99943.71;1797569;79;20944;-38
2022/12/18 04:08:40;;;;;;;16.52;10.28;;;;;;;-2.35;71.30;99953.23;1797464;79;20951;-39
2022/12/18 04:11:08;;;;;;;14.98;9.95;;;;;;;-2.40;71.76;99959.33;1797821;79;20979;-38
2022/12/18 04:13:36;;;;;;;18.17;11.35;;;;;;;-2.39;71.34;99962.26;1797619;79;21046;-38
2022/12/18 04:16:06;;;;;;;17.67;10.20;;;;;;;-2.39;71.77;99970.75;1797692;79;21590;-38
2022/12/18 04:18:34;;;;;;;16.80;11.43;;;;;;;-2.41;71.14;99964.36;1766197;79;21126;-38
2022/12/18 04:21:01;;;;;;;16.82;10.30;;;;;;;-2.44;71.22;99971.53;1797250;79;21089;-38
2022/12/18 04:23:28;;;;;;;17.20;10.68;;;;;;;-2.42;71.60;99969.39;1797732;79;20971;-39
2022/12/18 04:25:56;;;;;;;16.75;10.88;;;;;;;-2.43;71.29;99965.70;1797208;79;21039;-38
2022/12/18 04:28:26;;;;;;;14.25;9.23;;;;;;;-2.40;71.08;99983.22;1795132;79;21002;-38
2022/12/18 04:30:52;;;;;;;17.30;11.35;;;;;;;-2.41;71.03;99988.25;1797232;79;21078;-39
2022/12/18 04:33:20;;;;;;;18.48;10.90;;;;;;;-2.41;71.43;99984.80;1797384;79;20995;-38
2022/12/18 04:35:48;;;;;;;18.85;11.38;;;;;;;-2.35;71.73;99997.05;1797341;79;21053;-38
2022/12/18 04:38:15;;;;;;;16.45;10.45;;;;;;;-2.33;70.88;99996.27;1797593;79;20967;-39
2022/12/18 04:40:43;;;;;;;15.75;9.63;;;;;;;-2.32;70.89;100005.81;1797362;79;21019;-38
2022/12/18 04:43:12;;;;;;;16.45;10.55;;;;;;;-2.31;70.50;100008.75;1774706;79;21134;-38
2022/12/18 04:45:39;;;;;;;17.35;10.50;;;;;;;-2.31;70.38;100014.86;1805901;79;20963;-38
2022/12/18 04:48:06;;;;;;;17.05;10.50;;;;;;;-2.35;70.67;100016.44;1806108;79;20958;-38
2022/12/18 04:50:32;;;;;;;14.90;10.18;;;;;;;-2.27;70.89;100028.41;1806277;79;21516;-38
2022/12/18 04:52:59;;;;;;;16.77;10.20;;;;;;;-2.30;70.07;100024.43;1806077;79;21000;-38
2022/12/18 04:55:26;;;;;;;16.82;10.40;;;;;;;-2.32;69.97;100022.55;1805963;79;21226;-38
2022/12/18 04:57:53;;;;;;;15.45;10.58;;;;;;;-2.36;69.36;100016.16;1806148;79;20920;-39
2022/12/18 05:00:20;;;;;;;17.52;11.03;;;;;;;-2.41;70.16;100028.61;1805902;79;20999;-38
2022/12/18 05:02:47;;;;;;;17.37;10.25;;;;;;;-2.44;70.19;100033.12;1805727;79;20955;-38
2022/12/18 05:05:14;;;;;;;15.98;10.95;;;;;;;-2.45;70.61;100034.17;1805850;79;21027;-38
2022/12/18 05:07:40;;;;;;;14.80;9.60;;;;;;;-2.52;70.36;100045.03;1806058;79;21473;-38
2022/12/18 05:10:09;;;;;;;16.55;10.50;;;;;;;-2.54;70.03;100046.33;1805906;79;21015;-38
2022/12/18 05:12:57;;;;;;;15.13;9.55;;;;;;;-2.56;70.03;100057.72;1806136;79;21082;-39
2022/12/18 05:15:09;;;;;;;16.90;10.38;;;;;;;-2.57;69.87;100052.16;1802144;79;21012;-38
2022/12/18 05:17:36;;;;;;;16.15;9.73;;;;;;;-2.57;70.23;100062.25;1805919;79;21017;-39
2022/12/18 05:20:04;;;;;;;15.10;10.40;;;;;;;-2.58;70.25;100069.94;1805972;79;21074;-38
2022/12/18 05:22:31;;;;;;;15.72;9.83;;;;;;;-2.62;70.02;100081.33;1805968;79;20880;-38
2022/12/18 05:24:57;;;;;;;16.00;9.73;;;;;;;-2.64;70.50;100082.89;1806097;79;21006;-38
2022/12/18 05:27:24;;;;;;;14.90;9.68;;;;;;;-2.69;70.01;100077.55;1806138;79;21003;-38
2022/12/18 05:29:50;;;;;;;16.87;9.88;;;;;;;-2.72;70.02;100092.67;1806057;79;21481;-38
2022/12/18 05:32:18;;;;;;;14.38;9.10;;;;;;;-2.70;70.19;100091.87;1805917;79;21078;-39
2022/12/18 05:34:44;;;;;;;14.93;9.75;;;;;;;-2.72;69.91;100096.65;1805635;79;20927;-38
2022/12/18 05:37:11;;;;;;;15.90;9.88;;;;;;;-2.77;70.18;100108.02;1805789;79;20942;-38
2022/12/18 05:39:37;;;;;;;17.57;10.25;;;;;;;-2.75;70.26;100103.25;1805685;79;21023;-38
2022/12/18 05:42:04;;;;;;;16.60;10.03;;;;;;;-2.74;70.67;100117.31;1804033;79;20988;-38
2022/12/18 05:44:31;;;;;;;14.43;8.98;;;;;;;-2.73;70.44;100122.38;1791486;79;21246;-38
2022/12/18 05:46:58;;;;;;;14.38;9.65;;;;;;;-2.75;69.49;100127.66;1797095;79;21508;-38
2022/12/18 05:49:25;;;;;;;14.30;9.70;;;;;;;-2.78;69.57;100128.17;1797337;79;20986;-38
2022/12/18 05:51:52;;;;;;;15.00;9.73;;;;;;;-2.76;69.98;100137.47;1797228;79;21043;-38
2022/12/18 05:54:18;;;;;;;15.60;9.10;;;;;;;-2.73;70.29;100141.48;1797374;79;21520;-39
2022/12/18 05:56:45;;;;;;;14.20;8.80;;;;;;;-2.65;70.55;100135.70;1797151;79;23124;-38
2022/12/18 05:59:12;;;;;;;13.22;8.95;;;;;;;-2.57;69.72;100147.72;1797360;79;20956;-38
2022/12/18 06:01:38;;;;;;;12.58;8.23;;;;;;;-2.65;69.08;100156.41;1797488;79;21047;-38
2022/12/18 06:04:05;;;;;;;13.95;9.00;;;;;;;-2.66;68.59;100165.94;1797337;79;21436;-38
2022/12/18 06:06:33;;;;;;;14.90;9.48;;;;;;;-2.70;68.98;100168.83;1791561;79;22219;-39
2022/12/18 06:09:01;;;;;;;13.70;9.05;;;;;;;-2.70;69.15;100173.61;1797445;79;21098;-38
2022/12/18 06:11:27;;;;;;;13.08;8.75;;;;;;;-2.70;68.73;100175.47;1797238;79;20911;-38
2022/12/18 06:13:55;;;;;;;14.75;9.33;;;;;;;-2.80;68.60;100163.43;1797212;79;20924;-38
2022/12/18 06:16:22;;;;;;;14.35;9.53;;;;;;;-2.83;68.42;100178.54;1797244;79;21038;-38
2022/12/18 06:18:49;;;;;;;13.53;8.98;;;;;;;-2.88;68.58;100187.78;1797415;79;21066;-38
2022/12/18 06:21:16;;;;;;;13.30;8.18;;;;;;;-2.90;69.06;100191.19;1797178;79;23124;-38
2022/12/18 06:23:43;;;;;;;12.43;8.50;;;;;;;-2.90;68.82;100186.69;1797245;79;20967;-38
2022/12/18 06:26:12;;;;;;;12.88;8.38;;;;;;;-2.87;68.98;100190.71;1797306;79;20980;-38
2022/12/18 06:28:39;;;;;;;13.35;8.85;;;;;;;-2.88;68.62;100189.10;1797192;79;20986;-39
2022/12/18 06:31:07;;;;;;;13.13;8.48;;;;;;;-2.87;68.54;100196.02;1797143;79;21031;-38
2022/12/18 10:38:30;;;;;;;11.43;7.72;;;;;;;-3.11;71.89;100503.98;1756598;80;22113;-40
2022/12/18 10:41:05;;;;;;;9.43;6.83;;;;;;;-3.02;71.16;100508.87;1752270;81;21119;-41
2022/12/18 10:43:36;;;;;;;9.63;6.42;;;;;;;-3.09;70.85;100508.50;1760359;81;21158;-40
2022/12/18 10:46:11;;;;;;;11.97;7.55;;;;;;;-3.05;71.05;100505.39;1760184;81;20999;-40
2022/12/18 10:48:49;;;;;;;10.82;7.10;;;;;;;-3.09;70.47;100514.33;1754493;81;21028;-40
2022/12/18 10:51:37;;;;;;;9.60;6.40;;;;;;;-3.12;71.09;100514.30;1760216;81;20975;-40
2022/12/18 10:54:13;;;;;;;9.95;6.87;;;;;;;-3.13;70.40;100519.84;1732968;81;21561;-38
2022/12/18 10:56:40;;;;;;;11.05;6.80;;;;;;;-3.20;70.85;100523.99;1757247;81;23140;-38
2022/12/18 10:59:09;;;;;;;8.33;6.12;;;;;;;-3.19;71.22;100525.58;1759871;81;22072;-38
2022/12/18 11:01:53;;;;;;;6.40;4.83;;;;;;;-3.13;71.25;100521.97;1760275;81;20953;-38
2022/12/18 11:04:30;;;;;;;11.38;6.72;;;;;;;-3.10;70.89;100530.76;1760244;81;21048;-38
2022/12/18 11:07:06;;;;;;;9.13;6.17;;;;;;;-3.11;70.71;100528.37;1759875;81;21605;-38
2022/12/18 11:09:35;;;;;;;9.20;6.35;;;;;;;-3.12;70.83;100528.89;1760426;81;21101;-38
2022/12/18 11:12:09;;;;;;;7.95;5.20;;;;;;;-3.09;70.60;100542.98;1740778;81;21020;-38
2022/12/18 11:14:53;;;;;;;8.43;5.83;;;;;;;-3.11;70.56;100550.39;1741436;81;21471;-38
2022/12/18 11:17:33;;;;;;;9.80;6.25;;;;;;;-3.11;71.21;100549.59;1729861;81;21012;-39
2022/12/18 11:20:00;;;;;;;9.78;6.15;;;;;;;-3.07;71.12;100554.69;1736104;81;21012;-38
2022/12/18 11:22:34;;;;;;;10.48;7.10;;;;;;;-3.08;71.38;100555.20;1734378;82;21231;-38
2022/12/18 11:25:17;;;;;;;11.50;7.10;;;;;;;-3.04;71.62;100565.33;1750206;81;21020;-38
2022/12/18 11:27:58;;;;;;;10.00;6.55;;;;;;;-3.00;71.61;100567.80;1742550;82;21541;-38
2022/12/18 11:30:31;;;;;;;10.55;7.05;;;;;;;-2.97;71.63;100569.97;1750207;81;21546;-39
2022/12/18 11:33:08;;;;;;;9.23;6.15;;;;;;;-3.00;71.56;100573.11;1750116;82;21000;-38
2022/12/18 11:35:51;;;;;;;11.50;7.40;;;;;;;-2.98;71.58;100561.20;1750221;82;21149;-38
2022/12/18 11:38:27;;;;;;;9.18;6.37;;;;;;;-2.97;71.47;100564.66;1749912;81;21048;-38
2022/12/18 11:41:02;;;;;;;11.15;7.45;;;;;;;-2.93;71.53;100581.70;1749541;81;21016;-39
2022/12/18 11:43:54;;;;;;;11.22;7.20;;;;;;;-2.92;71.75;100583.31;1749650;81;21486;-38
2022/12/18 11:46:42;;;;;;;12.05;7.53;;;;;;;-2.97;71.73;100593.84;1749687;82;20990;-38
2022/12/18 11:49:20;;;;;;;11.45;7.05;;;;;;;-3.03;71.91;100589.48;1749688;81;21309;-38
2022/12/18 11:51:55;;;;;;;10.40;7.83;;;;;;;-3.03;72.23;100597.45;1737656;82;20992;-38
2022/12/18 11:54:22;;;;;;;11.55;7.78;;;;;;;-3.00;72.19;100597.77;1749181;82;21597;-38
2022/12/18 11:57:22;;;;;;;11.55;8.03;;;;;;;-3.03;72.30;100606.21;1750683;82;21913;-38
2022/12/18 12:00:16;;;;;;;13.28;8.38;;;;;;;-2.99;72.29;100601.22;1749074;82;20941;-39
2022/12/18 12:03:22;;;;;;;13.53;8.33;;;;;;;-3.00;72.65;100595.66;1755757;81;21222;-39
2022/12/18 12:06:18;;;;;;;14.63;8.05;;;;;;;-2.99;72.69;100622.45;1754116;81;21024;-39
2022/12/18 12:08:53;;;;;;;11.78;8.10;;;;;;;-3.02;72.57;100610.48;1755788;81;21152;-39
2022/12/18 12:11:43;;;;;;;13.08;8.48;;;;;;;-3.07;72.59;100623.13;1754355;81;21526;-39
2022/12/18 12:15:02;;;;;;;11.05;8.00;;;;;;;-3.09;72.82;100623.88;1707306;81;21031;-38
2022/12/18 12:17:38;;;;;;;12.45;8.05;;;;;;;-3.07;72.87;100627.11;1755838;81;21160;-39
2022/12/18 12:20:19;;;;;;;13.15;8.60;;;;;;;-3.07;72.78;100626.31;1754184;81;21505;-38
2022/12/18 12:22:57;;;;;;;14.75;8.95;;;;;;;-3.12;72.72;100627.02;1736683;82;21020;-38
2022/12/18 12:25:40;;;;;;;13.22;9.15;;;;;;;-3.16;73.04;100629.87;1749529;82;20945;-39
2022/12/18 12:28:50;;;;;;;13.72;8.50;;;;;;;-3.16;73.27;100637.83;1749541;81;20997;-39
2022/12/18 12:31:40;;;;;;;13.18;9.13;;;;;;;-3.12;73.43;100634.98;1749594;82;21240;-38
2022/12/18 12:34:32;;;;;;;13.88;9.10;;;;;;;-3.13;73.34;100632.55;1749527;82;20977;-39
2022/12/18 12:37:26;;;;;;;15.88;9.60;;;;;;;-3.16;73.32;100648.44;1749668;81;21064;-39
2022/12/18 12:39:53;;;;;;;14.60;8.98;;;;;;;-3.22;73.26;100660.51;1716349;82;21092;-39
2022/12/18 12:45:58;;;;;;;12.75;7.90;;;;;;;-3.30;73.52;100664.88;1692938;84;21278;-39
2022/12/18 12:48:47;;;;;;;12.03;8.33;;;;;;;-3.23;73.77;100671.63;1718421;83;21056;-39
2022/12/18 12:51:24;;;;;;;12.58;8.20;;;;;;;-3.22;73.44;100667.95;1771958;80;21538;-39
2022/12/18 12:53:51;;;;;;;12.98;8.23;;;;;;;-3.15;73.86;100673.89;1749531;82;20978;-39
2022/12/18 12:56:21;;;;;;;12.30;8.40;;;;;;;-3.07;73.30;100684.15;1755673;81;20992;-39
2022/12/18 12:58:56;;;;;;;14.38;9.03;;;;;;;-3.04;72.76;100687.34;1754125;81;21140;-39
2022/12/18 13:01:43;;;;;;;13.95;8.70;;;;;;;-3.07;72.74;100690.78;1750548;82;20913;-39
2022/12/18 13:04:36;;;;;;;13.85;8.18;;;;;;;-3.05;72.71;100695.05;1749501;82;21028;-39
2022/12/18 13:07:29;;;;;;;13.10;8.78;;;;;;;-3.06;72.93;100703.52;1744579;81;21644;-39
2022/12/18 13:10:25;;;;;;;14.10;8.60;;;;;;;-3.03;72.90;100695.08;1742939;82;21586;-39
2022/12/18 13:13:09;;;;;;;13.98;9.00;;;;;;;-3.05;72.66;100697.70;1749465;82;21156;-39
2022/12/18 13:16:02;;;;;;;14.10;8.60;;;;;;;-3.10;72.73;100709.80;1749565;82;20985;-39
2022/12/18 13:18:30;;;;;;;14.80;8.15;;;;;;;-3.13;72.76;100714.78;1749300;81;20978;-39
2022/12/18 13:21:02;;;;;;;14.23;8.75;;;;;;;-3.14;73.09;100720.60;1781354;80;21076;-39
2022/12/18 13:23:33;;;;;;;14.68;9.20;;;;;;;-3.08;73.21;100731.60;1749491;82;20969;-39
2022/12/18 13:26:10;;;;;;;14.60;9.15;;;;;;;-3.44;73.24;100680.25;1781444;80;21319;-39
2022/12/18 13:28:50;;;;;;;14.05;8.50;;;;;;;-3.10;72.95;100743.50;1749500;82;21503;-39
2022/12/18 13:31:43;;;;;;;12.82;8.33;;;;;;;-3.10;72.66;100743.50;1747894;82;20957;-39
2022/12/18 13:34:24;;;;;;;12.60;8.88;;;;;;;-3.18;72.63;100749.97;1749627;82;21521;-39
2022/12/18 13:36:54;;;;;;;14.87;8.38;;;;;;;-3.26;72.54;100762.28;1749673;82;21021;-39
2022/12/18 13:39:25;;;;;;;11.60;7.55;;;;;;;-3.30;72.79;100759.81;1749809;82;21101;-39
2022/12/18 13:42:07;;;;;;;12.70;8.20;;;;;;;-3.34;72.71;100752.56;1749638;82;20933;-39
2022/12/18 13:44:41;;;;;;;11.65;7.03;;;;;;;-3.36;72.87;100756.77;1749659;82;21041;-39
2022/12/18 13:47:34;;;;;;;13.45;8.10;;;;;;;-3.40;72.83;100764.09;1749431;81;21065;-39
2022/12/18 13:50:25;;;;;;;12.58;7.55;;;;;;;-3.42;73.14;100773.59;1749729;82;21024;-39
2022/12/18 13:52:51;;;;;;;11.53;7.70;;;;;;;-3.44;73.10;100776.21;1749640;82;21360;-39
2022/12/18 13:55:20;;;;;;;11.90;7.87;;;;;;;-3.43;73.09;100777.80;1749220;81;20938;-39
2022/12/18 13:57:46;;;;;;;12.23;7.85;;;;;;;-3.43;72.85;100779.94;1749461;81;21000;-39
2022/12/18 14:00:33;;;;;;;10.80;7.28;;;;;;;-3.47;72.72;100793.37;1749302;82;20977;-39
2022/12/18 18:41:36;;;;;;;14.15;8.08;;;;;;;-5.21;75.82;101237.05;1755879;80;22586;-39
2022/12/18 18:44:03;;;;;;;12.18;7.72;;;;;;;-5.09;74.94;101250.75;1743508;81;21080;-39
2022/12/18 18:46:30;;;;;;;13.10;8.23;;;;;;;-5.04;74.73;101253.57;1761132;81;21138;-38
2022/12/18 18:48:57;;;;;;;13.88;8.13;;;;;;;-5.02;74.23;101255.98;1779776;80;21596;-39
2022/12/18 18:51:23;;;;;;;13.03;7.30;;;;;;;-5.01;74.39;101265.05;1781248;80;21804;-39
2022/12/18 18:53:51;;;;;;;13.20;7.70;;;;;;;-4.93;73.73;101262.66;1781256;80;20984;-39
2022/12/18 18:56:22;;;;;;;14.03;7.55;;;;;;;-4.89;73.08;101271.81;1781271;80;21522;-39
2022/12/18 18:58:50;;;;;;;14.23;8.55;;;;;;;-4.85;73.06;101280.44;1781320;80;21138;-39
2022/12/18 19:01:19;;;;;;;12.93;7.22;;;;;;;-4.80;72.67;101275.83;1780951;80;21510;-39
2022/12/18 19:03:46;;;;;;;14.05;7.37;;;;;;;-4.75;72.17;101277.33;1781217;80;20918;-39
2022/12/18 19:06:18;;;;;;;12.98;8.03;;;;;;;-4.76;71.35;101284.15;1781162;80;20989;-39
2022/12/18 19:08:45;;;;;;;14.30;8.03;;;;;;;-4.77;71.62;101283.33;1781358;80;20973;-39
2022/12/18 19:13:58;;;;;;;14.20;7.80;;;;;;;-4.69;71.33;101297.63;1781599;80;20994;-39
2022/12/18 19:16:26;;;;;;;12.90;7.67;;;;;;;-4.67;71.07;101308.02;1781387;80;21024;-39
2022/12/18 19:18:54;;;;;;;13.38;7.78;;;;;;;-4.64;70.54;101308.91;1781528;80;20973;-39
2022/12/18 19:21:22;;;;;;;17.23;8.90;;;;;;;-4.63;70.81;101303.91;1781716;80;20965;-39
2022/12/18 19:23:49;;;;;;;14.58;8.90;;;;;;;-4.60;70.06;101309.59;1781505;80;21253;-39
2022/12/18 19:26:16;;;;;;;15.53;8.88;;;;;;;-4.66;69.78;101309.64;1781417;80;21483;-39
2022/12/18 19:28:44;;;;;;;12.28;8.00;;;;;;;-4.67;70.03;101313.30;1781371;80;21056;-39
2022/12/18 19:31:12;;;;;;;14.35;8.40;;;;;;;-4.65;70.23;101317.38;1781635;80;20976;-39
2022/12/18 19:33:41;;;;;;;14.87;8.28;;;;;;;-4.64;70.07;101319.48;1781305;80;21099;-39
2022/12/18 19:36:20;;;;;;;14.23;8.23;;;;;;;-4.56;70.33;101334.63;1781536;80;21088;-39
2022/12/18 19:38:48;;;;;;;17.65;8.80;;;;;;;-4.54;69.50;101340.51;1781458;80;20925;-39
2022/12/18 19:41:16;;;;;;;15.75;8.45;;;;;;;-4.49;69.71;101347.81;1780978;80;20949;-39
2022/12/18 19:43:44;;;;;;;16.07;8.50;;;;;;;-4.44;69.51;101343.51;1780803;80;20949;-39
2022/12/18 19:46:13;;;;;;;13.72;8.08;;;;;;;-4.44;68.86;101350.63;1780633;80;21016;-39
2022/12/18 19:48:41;;;;;;;11.53;7.35;;;;;;;-4.40;68.96;101351.83;1780838;80;21305;-39
2022/12/18 19:51:11;;;;;;;17.45;8.33;;;;;;;-4.37;68.85;101365.17;1780585;80;21008;-39
2022/12/18 19:53:37;;;;;;;14.00;8.45;;;;;;;-4.35;68.56;101365.75;1780256;80;20960;-39
2022/12/18 19:56:10;;;;;;;15.23;8.50;;;;;;;-4.39;68.28;101366.19;1780838;80;21292;-39
2022/12/18 19:58:36;;;;;;;13.75;8.03;;;;;;;-4.46;67.82;101372.55;1780744;80;21503;-40
2022/12/18 20:01:04;;;;;;;13.95;8.00;;;;;;;-4.52;68.29;101376.04;1780859;80;21135;-39
2022/12/18 20:03:31;;;;;;;12.05;7.47;;;;;;;-4.50;68.41;101379.27;1775151;80;21006;-39
2022/12/18 20:06:21;;;;;;;13.72;8.23;;;;;;;-4.50;68.21;101381.41;1780912;80;21522;-40
2022/12/18 20:08:49;;;;;;;12.25;7.95;;;;;;;-4.48;68.25;101383.34;1780519;80;21028;-39
2022/12/18 20:11:16;;;;;;;13.10;7.62;;;;;;;-4.47;67.83;101396.07;1752534;80;21021;-39
2022/12/18 20:13:43;;;;;;;15.13;8.18;;;;;;;-4.50;67.59;101394.64;1780747;80;21287;-39
2022/12/18 20:16:11;;;;;;;13.20;7.85;;;;;;;-4.52;67.34;101387.95;1780648;80;21009;-39
2022/12/18 20:18:37;;;;;;;14.60;8.25;;;;;;;-4.61;67.47;101385.24;1780673;80;21577;-39
2022/12/18 20:21:05;;;;;;;11.63;6.85;;;;;;;-4.60;67.71;101389.52;1780724;80;20992;-39
2022/12/18 20:23:31;;;;;;;14.45;7.80;;;;;;;-4.53;67.96;101407.49;1780942;80;21080;-39
2022/12/18 20:25:58;;;;;;;12.35;7.47;;;;;;;-4.52;67.39;101411.77;1780854;80;21208;-39
2022/12/18 20:28:25;;;;;;;11.65;6.75;;;;;;;-4.56;67.13;101414.54;1780684;80;21365;-39
2022/12/18 20:31:03;;;;;;;14.93;7.75;;;;;;;-4.55;67.12;101422.78;1780789;80;21015;-39
2022/12/18 20:33:30;;;;;;;14.33;7.25;;;;;;;-4.55;67.44;101424.89;1780827;80;21387;-39
2022/12/18 20:36:04;;;;;;;12.30;7.58;;;;;;;-4.44;67.56;101437.98;1780900;80;21010;-39
2022/12/18 20:38:33;;;;;;;13.60;7.65;;;;;;;-4.38;67.35;101449.07;1780927;80;21138;-39
2022/12/18 20:41:01;;;;;;;13.13;7.58;;;;;;;-4.35;66.49;101449.97;1782268;80;21007;-39
2022/12/18 20:43:29;;;;;;;13.15;8.20;;;;;;;-4.35;66.35;101455.27;1784143;80;20953;-39
2022/12/18 20:46:07;;;;;;;12.15;7.55;;;;;;;-4.36;66.51;101460.28;1783996;80;20922;-39
2022/12/18 20:48:34;;;;;;;9.70;6.00;;;;;;;-4.32;66.47;101461.48;1784409;80;20992;-39
2022/12/18 20:51:05;;;;;;;12.00;7.72;;;;;;;-4.28;66.53;101464.51;1784007;80;21341;-39
2022/12/18 20:53:33;;;;;;;12.25;6.80;;;;;;;-4.21;66.27;101462.12;1783769;80;21515;-39
2022/12/18 20:56:01;;;;;;;13.75;7.90;;;;;;;-4.21;65.97;101454.17;1784146;80;21525;-40
2022/12/18 20:58:28;;;;;;;11.18;7.03;;;;;;;-4.28;65.18;101453.41;1783695;80;20902;-40
2022/12/18 21:01:04;;;;;;;16.37;7.95;;;;;;;-4.37;65.14;101452.53;1783767;80;21052;-40
2022/12/18 21:03:31;;;;;;;10.30;6.42;;;;;;;-4.44;65.45;101464.47;1784123;80;21765;-40
2022/12/18 21:05:57;;;;;;;13.25;7.03;;;;;;;-4.55;65.59;101465.13;1783806;80;21008;-39
2022/12/18 21:08:24;;;;;;;13.08;7.72;;;;;;;-4.57;65.57;101469.81;1783517;80;21072;-39
2022/12/18 21:10:52;;;;;;;14.10;7.47;;;;;;;-4.68;65.42;101481.84;1783550;80;21392;-39
2022/12/18 21:13:19;;;;;;;10.15;6.62;;;;;;;-4.71;65.74;101483.59;1783583;80;21004;-40
2022/12/18 21:15:46;;;;;;;10.50;6.87;;;;;;;-4.77;65.71;101491.53;1783675;80;21327;-39
2022/12/18 21:18:14;;;;;;;9.38;6.08;;;;;;;-4.78;66.01;101497.33;1783509;80;20985;-39
2022/12/18 21:20:41;;;;;;;10.82;6.53;;;;;;;-4.77;65.45;101496.83;1783697;80;21084;-40
2022/12/18 21:23:09;;;;;;;12.53;6.97;;;;;;;-4.83;65.72;101500.59;1783521;80;21000;-40
2022/12/18 21:25:36;;;;;;;13.40;6.65;;;;;;;-4.85;65.84;101505.30;1783700;80;20969;-39
2022/12/18 21:28:03;;;;;;;11.95;7.15;;;;;;;-4.77;66.06;101503.44;1783533;80;21148;-39
2022/12/18 21:30:30;;;;;;;13.60;7.85;;;;;;;-4.72;66.29;101502.31;1783625;80;20969;-39
2022/12/18 21:32:58;;;;;;;11.85;7.20;;;;;;;-4.57;66.26;101494.95;1783604;80;21012;-39
2022/12/18 21:35:25;;;;;;;13.90;7.58;;;;;;;-4.50;65.70;101494.41;1783505;80;21566;-39
2022/12/18 21:37:52;;;;;;;12.05;7.45;;;;;;;-4.50;64.73;101501.03;1783954;80;20910;-39
2022/12/18 21:40:18;;;;;;;14.85;7.50;;;;;;;-4.53;65.03;101504.92;1783489;80;21252;-40
2022/12/18 21:45:30;;;;;;;10.25;6.60;;;;;;;-4.77;64.21;101507.41;1783564;80;20933;-39
2022/12/18 21:47:57;;;;;;;11.33;7.05;;;;;;;-4.92;64.72;101514.24;1783688;80;20925;-39
2022/12/18 21:50:24;;;;;;;11.93;6.72;;;;;;;-4.95;64.68;101511.52;1783473;80;21079;-39
2022/12/18 21:52:51;;;;;;;12.23;7.67;;;;;;;-4.98;64.97;101516.38;1783724;80;21152;-40
2022/12/18 21:55:18;;;;;;;10.48;6.55;;;;;;;-5.00;65.18;101513.96;1783638;80;20964;-39
2022/12/18 21:57:45;;;;;;;16.07;7.47;;;;;;;-4.96;65.29;101517.00;1783478;80;21514;-40
2022/12/18 22:00:13;;;;;;;12.73;7.58;;;;;;;-4.94;65.41;101515.77;1777611;80;21340;-40
2022/12/18 22:02:40;;;;;;;13.48;7.42;;;;;;;-4.93;65.05;101521.87;1783517;80;21087;-39
2022/12/18 22:05:08;;;;;;;12.50;7.72;;;;;;;-4.99;65.07;101519.56;1783858;80;21240;-39
2022/12/18 22:07:35;;;;;;;13.20;7.45;;;;;;;-5.02;65.29;101522.59;1784018;80;20969;-39
